createdAt,value
2023-01-12T00:02:05.942Z,10.27
2023-01-12T00:04:54.333Z,13.57
2023-01-12T00:07:41.247Z,13.77
2023-01-12T00:10:28.167Z,13.17
2023-01-12T00:13:15.111Z,13.47
2023-01-12T00:16:21.485Z,9.40
2023-01-12T00:19:18.113Z,12.50
2023-01-12T00:22:10.864Z,16.50
2023-01-12T00:24:57.795Z,11.10
2023-01-12T00:27:44.869Z,12.00
2023-01-12T00:30:31.794Z,14.57
2023-01-12T00:33:20.043Z,11.57
2023-01-12T00:36:11.543Z,13.83
2023-01-12T00:38:58.481Z,10.17
2023-01-12T00:42:04.890Z,14.10
2023-01-12T00:45:10.404Z,8.90
2023-01-12T00:47:57.343Z,11.60
2023-01-12T00:50:46.273Z,12.70
2023-01-12T00:53:33.316Z,8.53
2023-01-12T00:56:20.276Z,12.67
2023-01-12T00:59:07.549Z,8.90
2023-01-12T01:01:54.741Z,10.23
2023-01-12T01:04:41.785Z,9.27
2023-01-12T01:07:28.719Z,11.00
2023-01-12T01:10:16.515Z,7.17
2023-01-12T01:13:03.457Z,9.37
2023-01-12T01:15:50.435Z,10.23
2023-01-12T01:18:37.992Z,10.50
2023-01-12T01:21:25.824Z,7.87
2023-01-12T01:24:13.741Z,8.73
2023-01-12T01:27:00.716Z,7.03
2023-01-12T01:29:47.715Z,9.43
2023-01-12T01:32:34.650Z,10.93
2023-01-12T01:35:21.580Z,10.80
2023-01-12T01:38:09.578Z,6.53
2023-01-12T01:40:56.860Z,8.00
2023-01-12T01:44:16.028Z,10.77
2023-01-12T01:47:13.159Z,7.07
2023-01-12T01:50:03.682Z,8.40
2023-01-12T01:52:56.294Z,4.70
2023-01-12T01:55:51.342Z,7.77
2023-01-12T01:58:43.081Z,10.13
2023-01-12T02:01:30.190Z,9.00
2023-01-12T02:04:17.272Z,8.37
2023-01-12T02:07:06.508Z,10.60
2023-01-12T02:09:53.556Z,6.43
2023-01-12T02:12:59.243Z,7.03
2023-01-12T02:16:19.430Z,6.07
2023-01-12T02:19:35.179Z,3.80
2023-01-12T02:22:31.548Z,4.73
2023-01-12T02:25:39.801Z,4.07
2023-01-12T02:29:03.589Z,7.30
2023-01-12T02:32:02.881Z,7.17
2023-01-12T02:35:27.154Z,4.17
2023-01-12T02:38:22.961Z,7.53
2023-01-12T02:41:48.296Z,8.83
2023-01-12T02:44:51.763Z,3.30
2023-01-12T02:47:56.710Z,3.33
2023-01-12T02:50:57.782Z,5.83
2023-01-12T02:53:52.817Z,5.63
2023-01-12T02:56:49.517Z,3.37
2023-01-12T02:59:40.171Z,5.50
2023-01-12T03:02:27.907Z,3.47
2023-01-12T03:05:14.869Z,4.53
2023-01-12T03:08:05.948Z,6.97
2023-01-12T03:11:14.550Z,6.67
2023-01-12T03:14:03.453Z,7.37
2023-01-12T03:16:52.105Z,8.10
2023-01-12T03:19:41.744Z,10.13
2023-01-12T03:22:34.399Z,7.53
2023-01-12T03:25:23.867Z,9.83
2023-01-12T03:28:14.348Z,6.80
2023-01-12T03:31:10.983Z,11.37
2023-01-12T03:33:58.708Z,10.60
2023-01-12T03:36:53.453Z,10.10
2023-01-12T03:40:05.226Z,12.57
2023-01-12T03:42:55.050Z,12.27
2023-01-12T03:45:56.997Z,16.27
2023-01-12T03:49:00.580Z,10.77
2023-01-12T03:51:50.226Z,9.10
2023-01-12T03:54:39.019Z,8.63
2023-01-12T03:57:26.658Z,9.03
2023-01-12T04:00:15.859Z,9.23
2023-01-12T04:03:14.416Z,5.67
2023-01-12T04:06:01.913Z,7.90
2023-01-12T04:08:48.887Z,9.20
2023-01-12T04:11:54.557Z,8.93
2023-01-12T04:14:46.149Z,9.20
2023-01-12T04:17:34.711Z,8.23
2023-01-12T04:20:21.807Z,7.60
2023-01-12T04:23:08.948Z,12.37
2023-01-12T04:25:55.918Z,6.50
2023-01-12T04:28:42.879Z,8.50
2023-01-12T04:31:29.881Z,9.87
2023-01-12T04:34:16.862Z,4.30
2023-01-12T04:37:04.069Z,9.43
2023-01-12T04:39:51.029Z,10.90
2023-01-12T04:43:07.158Z,6.00
2023-01-12T04:45:54.748Z,8.97
2023-01-12T04:48:46.061Z,6.87
2023-01-12T04:51:33.022Z,6.03
2023-01-12T04:54:19.974Z,10.30
2023-01-12T04:57:06.916Z,20.57
2023-01-12T04:59:53.882Z,41.43
2023-01-12T05:02:40.857Z,56.25
2023-01-12T05:05:28.897Z,11.63
2023-01-12T05:08:34.308Z,9.80
2023-01-12T05:11:24.835Z,7.23
2023-01-12T05:14:11.778Z,4.17
2023-01-12T05:16:59.619Z,7.97
2023-01-12T05:19:48.269Z,7.63
2023-01-12T05:22:35.232Z,7.77
2023-01-12T05:25:22.152Z,5.57
2023-01-12T05:28:09.101Z,11.73
2023-01-12T05:31:02.523Z,7.23
2023-01-12T05:33:49.598Z,9.30
2023-01-12T05:36:36.546Z,5.20
2023-01-12T05:39:23.464Z,15.67
2023-01-12T05:42:29.051Z,5.53
2023-01-12T05:45:16.120Z,6.77
2023-01-12T05:48:03.173Z,8.13
2023-01-12T05:50:51.189Z,8.40
2023-01-12T05:53:38.985Z,6.03
2023-01-12T05:56:27.538Z,8.90
2023-01-12T05:59:14.552Z,7.83
2023-01-12T06:02:02.232Z,6.83
2023-01-12T06:04:49.322Z,9.77
2023-01-12T06:07:36.856Z,7.78
2023-01-12T06:10:23.794Z,7.10
2023-01-12T06:13:29.367Z,7.30
2023-01-12T06:16:16.456Z,8.73
2023-01-12T06:19:03.516Z,10.33
2023-01-12T06:21:51.526Z,10.87
2023-01-12T06:24:38.498Z,8.53
2023-01-12T06:27:25.690Z,6.37
2023-01-12T06:30:13.017Z,8.40
2023-01-12T06:33:02.737Z,6.77
2023-01-12T06:35:50.065Z,7.03
2023-01-12T06:38:37.379Z,4.87
2023-01-12T06:41:42.986Z,6.30
2023-01-12T06:44:29.957Z,9.97
2023-01-12T06:47:16.964Z,11.33
2023-01-12T06:50:04.146Z,8.93
2023-01-12T06:52:51.173Z,6.40
2023-01-12T06:55:38.194Z,7.20
2023-01-12T06:58:25.127Z,8.13
2023-01-12T07:01:13.659Z,6.07
2023-01-12T07:04:00.762Z,8.33
2023-01-12T07:06:48.242Z,6.83
2023-01-12T07:09:35.930Z,7.40
2023-01-12T07:12:22.928Z,8.00
2023-01-12T07:15:10.339Z,7.70
2023-01-12T07:17:57.802Z,7.67
2023-01-12T07:20:45.872Z,7.40
2023-01-12T07:23:32.905Z,7.03
2023-01-12T07:26:19.870Z,5.60
2023-01-12T07:29:07.016Z,8.00
2023-01-12T07:31:54.006Z,5.87
2023-01-12T07:34:40.944Z,7.13
2023-01-12T07:37:27.913Z,5.23
2023-01-12T07:40:15.056Z,6.37
2023-01-12T07:43:08.616Z,5.33
2023-01-12T07:45:57.407Z,6.00
2023-01-12T07:48:46.268Z,6.13
2023-01-12T07:51:33.279Z,6.00
2023-01-12T07:54:20.504Z,4.50
2023-01-12T07:57:10.086Z,5.07
2023-01-12T07:59:57.039Z,5.43
2023-01-12T08:02:44.025Z,7.93
2023-01-12T08:05:30.991Z,7.90
2023-01-12T08:08:17.993Z,6.87
2023-01-12T08:11:07.348Z,5.70
2023-01-12T08:13:56.119Z,7.90
2023-01-12T08:16:46.764Z,6.03
2023-01-12T08:19:40.878Z,5.17
2023-01-12T08:22:34.416Z,4.50
2023-01-12T08:25:33.257Z,3.57
2023-01-12T08:28:24.319Z,3.53
2023-01-12T08:31:13.982Z,4.10
2023-01-12T08:34:01.026Z,3.23
2023-01-12T08:36:47.983Z,5.97
2023-01-12T08:39:36.188Z,6.03
2023-01-12T08:42:28.778Z,4.70
2023-01-12T08:45:16.734Z,3.60
2023-01-12T08:48:03.878Z,3.83
2023-01-12T08:50:50.833Z,2.93
2023-01-12T08:53:37.911Z,3.07
2023-01-12T08:56:24.927Z,1.70
2023-01-12T08:59:16.028Z,4.23
2023-01-12T09:02:03.641Z,2.57
2023-01-12T09:04:50.734Z,1.83
2023-01-12T09:07:38.058Z,4.00
2023-01-12T09:10:25.027Z,2.57
2023-01-12T09:13:15.606Z,2.87
2023-01-12T09:16:12.825Z,1.37
2023-01-12T09:19:01.954Z,3.30
2023-01-12T09:21:49.092Z,3.13
2023-01-12T09:24:36.084Z,1.67
2023-01-12T09:27:23.045Z,3.70
2023-01-12T09:30:10.837Z,5.03
2023-01-12T09:32:57.776Z,1.70
2023-01-12T09:35:44.729Z,3.20
2023-01-12T09:38:32.457Z,2.07
2023-01-12T09:41:46.173Z,1.67
2023-01-12T09:45:00.832Z,5.53
2023-01-12T09:47:53.738Z,4.77
2023-01-12T09:51:05.880Z,2.20
2023-01-12T09:53:52.914Z,1.70
2023-01-12T09:57:01.623Z,2.23
2023-01-12T10:00:10.769Z,2.50
2023-01-12T10:03:00.845Z,2.20
2023-01-12T10:05:51.320Z,1.40
2023-01-12T10:09:00.548Z,2.87
2023-01-12T10:12:19.731Z,1.50
2023-01-12T10:15:25.000Z,1.83
2023-01-12T10:18:23.183Z,3.43
2023-01-12T10:21:11.337Z,1.20
2023-01-12T10:23:58.494Z,1.27
2023-01-12T10:26:45.501Z,1.20
2023-01-12T10:29:32.948Z,2.23
2023-01-12T10:32:24.569Z,1.83
2023-01-12T10:35:20.266Z,1.30
2023-01-12T10:38:19.544Z,1.80
2023-01-12T10:41:12.381Z,0.90
2023-01-12T10:43:59.462Z,1.20
2023-01-12T10:47:09.900Z,1.30
2023-01-12T10:50:22.887Z,1.70
2023-01-12T10:53:17.292Z,1.47
2023-01-12T10:56:39.215Z,1.57
2023-01-12T10:59:29.505Z,1.00
2023-01-12T11:02:16.934Z,0.83
2023-01-12T11:05:38.368Z,1.30
2023-01-12T11:08:28.547Z,1.23
2023-01-12T11:11:31.930Z,2.33
2023-01-12T11:14:26.039Z,2.37
2023-01-12T11:17:49.919Z,2.57
2023-01-12T11:20:51.576Z,1.30
2023-01-12T11:23:49.861Z,1.67
2023-01-12T11:26:44.991Z,2.00
2023-01-12T11:29:38.044Z,1.37
2023-01-12T11:32:44.114Z,1.30
2023-01-12T11:35:36.976Z,0.90
2023-01-12T11:38:40.915Z,1.00
2023-01-12T11:41:42.925Z,1.10
2023-01-12T11:44:43.007Z,1.43
2023-01-12T11:47:36.261Z,2.33
2023-01-12T11:50:30.911Z,1.50
2023-01-12T11:53:23.330Z,2.13
2023-01-12T11:56:42.007Z,1.50
2023-01-12T11:59:50.460Z,1.30
2023-01-12T12:03:09.755Z,1.13
2023-01-12T12:06:13.431Z,1.10
2023-01-12T12:09:00.402Z,1.73
2023-01-12T12:12:00.983Z,2.93
2023-01-12T12:15:05.932Z,2.10
2023-01-12T12:18:18.712Z,1.50
2023-01-12T12:21:23.682Z,0.70
2023-01-12T12:24:37.694Z,1.00
2023-01-12T12:27:56.610Z,1.20
2023-01-12T12:31:02.149Z,1.10
2023-01-12T12:34:14.340Z,1.07
2023-01-12T12:37:26.931Z,1.20
2023-01-12T12:40:52.280Z,2.63
2023-01-12T12:43:57.858Z,1.70
2023-01-12T12:47:00.721Z,1.60
2023-01-12T12:49:47.904Z,1.83
2023-01-12T12:52:35.929Z,3.00
2023-01-12T12:55:22.885Z,1.90
2023-01-12T12:58:37.387Z,3.27
2023-01-12T13:01:24.375Z,1.90
2023-01-12T13:04:12.753Z,1.53
2023-01-12T13:07:05.851Z,1.10
2023-01-12T13:10:26.493Z,1.10
2023-01-12T13:13:35.852Z,1.17
2023-01-12T13:16:29.450Z,2.07
2023-01-12T13:19:43.433Z,1.73
2023-01-12T13:22:42.033Z,2.37
2023-01-12T13:25:48.925Z,2.73
2023-01-12T13:28:36.373Z,2.33
2023-01-12T13:31:33.122Z,3.10
2023-01-12T13:34:32.121Z,3.70
2023-01-12T13:37:19.043Z,3.60
2023-01-12T13:40:11.596Z,5.00
2023-01-12T13:43:15.183Z,4.40
2023-01-12T13:46:05.557Z,5.73
2023-01-12T13:48:55.326Z,6.03
2023-01-12T13:51:54.527Z,6.10
2023-01-12T13:54:49.818Z,11.33
2023-01-12T13:57:37.095Z,14.60
2023-01-12T14:00:24.578Z,11.53
2023-01-12T14:03:25.870Z,8.33
2023-01-12T14:07:01.947Z,13.27
2023-01-12T14:10:04.893Z,9.53
2023-01-12T14:13:29.538Z,7.27
2023-01-12T14:16:35.903Z,15.53
2023-01-12T14:19:28.123Z,15.10
2023-01-12T14:22:19.921Z,13.07
2023-01-12T14:25:19.333Z,14.63
2023-01-12T14:28:16.187Z,12.60
2023-01-12T14:31:06.459Z,9.47
2023-01-12T14:34:02.618Z,17.77
2023-01-12T14:36:49.998Z,10.90
2023-01-12T14:39:41.244Z,17.43
2023-01-12T14:42:46.916Z,13.30
2023-01-12T14:45:52.768Z,11.27
2023-01-12T14:48:43.631Z,8.93
2023-01-12T14:51:35.592Z,14.30
2023-01-12T14:54:27.941Z,14.63
2023-01-12T14:57:34.470Z,15.70
2023-01-12T15:00:30.520Z,16.17
2023-01-12T15:03:35.091Z,8.37
2023-01-12T15:06:22.587Z,9.27
2023-01-12T15:09:29.184Z,8.03
2023-01-12T15:12:28.411Z,13.00
2023-01-12T15:15:23.742Z,13.63
2023-01-12T15:18:29.500Z,10.07
2023-01-12T15:21:35.247Z,14.27
2023-01-12T15:24:42.475Z,11.53
2023-01-12T15:27:29.716Z,12.80
2023-01-12T15:30:17.001Z,14.30
2023-01-12T15:33:04.522Z,13.50
2023-01-12T15:35:51.552Z,11.47
2023-01-12T15:38:38.513Z,8.63
2023-01-12T15:41:50.063Z,12.53
2023-01-12T15:44:38.347Z,14.50
2023-01-12T15:47:25.321Z,12.07
2023-01-12T15:50:12.326Z,15.13
2023-01-12T15:53:00.839Z,14.70
2023-01-12T15:55:48.516Z,12.93
2023-01-12T15:58:35.498Z,11.87
2023-01-12T16:01:22.645Z,10.53
2023-01-12T16:07:29.142Z,15.30
2023-01-12T16:10:17.167Z,7.50
2023-01-12T16:13:07.823Z,18.03
2023-01-12T16:15:54.849Z,17.77
2023-01-12T16:18:41.827Z,11.00
2023-01-12T16:21:28.824Z,13.60
2023-01-12T16:24:15.751Z,9.37
2023-01-12T16:27:03.076Z,11.10
2023-01-12T16:29:50.102Z,13.87
2023-01-12T16:32:37.245Z,9.63
2023-01-12T16:35:24.181Z,8.83
2023-01-12T16:38:13.692Z,15.87
2023-01-12T16:41:15.685Z,7.73
2023-01-12T16:44:02.760Z,14.87
2023-01-12T16:46:51.031Z,14.67
2023-01-12T16:49:38.585Z,12.63
2023-01-12T16:52:25.910Z,10.90
2023-01-12T16:55:12.868Z,14.27
2023-01-12T16:57:59.907Z,14.33
2023-01-12T17:00:46.897Z,12.53
2023-01-12T17:03:34.798Z,15.27
2023-01-12T17:06:21.935Z,15.07
2023-01-12T17:09:09.088Z,18.73
2023-01-12T17:11:58.103Z,14.03
2023-01-12T17:14:45.313Z,24.20
2023-01-12T17:17:32.424Z,19.37
2023-01-12T17:20:19.907Z,28.47
2023-01-12T17:23:07.031Z,20.73
2023-01-12T17:25:55.809Z,14.10
2023-01-12T17:28:43.383Z,13.23
2023-01-12T17:31:30.516Z,12.80
2023-01-12T17:34:18.111Z,16.97
2023-01-12T17:37:08.451Z,14.30
2023-01-12T17:39:55.562Z,13.43
2023-01-12T17:43:01.898Z,10.43
2023-01-12T17:45:48.906Z,11.43
2023-01-12T17:48:35.924Z,8.80
2023-01-12T17:51:22.825Z,7.20
2023-01-12T17:54:12.823Z,8.67
2023-01-12T17:57:00.036Z,8.90
2023-01-12T17:59:47.082Z,6.50
2023-01-12T18:02:34.129Z,8.10
2023-01-12T18:05:21.069Z,8.67
2023-01-12T18:08:08.001Z,9.17
2023-01-12T18:10:54.941Z,6.67
2023-01-12T18:13:42.027Z,7.67
2023-01-12T18:16:29.774Z,7.83
2023-01-12T18:19:17.035Z,5.77
2023-01-12T18:22:06.901Z,7.77
2023-01-12T18:24:53.862Z,5.03
2023-01-12T18:27:40.917Z,6.10
2023-01-12T18:30:27.856Z,7.00
2023-01-12T18:33:14.801Z,5.67
2023-01-12T18:36:06.558Z,5.40
2023-01-12T18:38:54.016Z,4.53
2023-01-12T18:41:59.881Z,4.03
2023-01-12T18:44:48.348Z,3.47
2023-01-12T18:47:54.274Z,2.90
2023-01-12T18:51:00.041Z,2.70
2023-01-12T18:53:46.988Z,3.33
2023-01-12T18:56:33.963Z,3.03
2023-01-12T18:59:21.528Z,2.37
2023-01-12T19:02:11.214Z,1.83
2023-01-12T19:05:18.478Z,3.63
2023-01-12T19:08:25.523Z,5.70
2023-01-12T19:11:13.938Z,2.87
2023-01-12T19:14:19.482Z,2.20
2023-01-12T19:17:25.398Z,2.33
2023-01-12T19:20:15.964Z,2.47
2023-01-12T19:23:21.533Z,1.70
2023-01-12T19:26:29.083Z,2.60
2023-01-12T19:29:16.002Z,2.07
2023-01-12T19:32:03.061Z,3.10
2023-01-12T19:34:50.606Z,7.67
2023-01-12T19:37:47.235Z,4.27
2023-01-12T19:40:44.088Z,5.00
2023-01-12T19:43:33.857Z,4.30
2023-01-12T19:46:20.788Z,5.17
2023-01-12T19:49:08.008Z,5.67
2023-01-12T19:51:54.975Z,6.73
2023-01-12T19:54:41.920Z,3.37
2023-01-12T19:57:29.062Z,2.93
2023-01-12T20:00:17.491Z,4.73
2023-01-12T20:03:04.520Z,3.93
2023-01-12T20:05:52.261Z,3.10
2023-01-12T20:08:39.310Z,5.00
2023-01-12T20:11:26.407Z,9.07
2023-01-12T20:14:15.092Z,8.83
2023-01-12T20:17:02.176Z,9.20
2023-01-12T20:19:50.382Z,9.60
2023-01-12T20:22:37.447Z,2.67
2023-01-12T20:25:28.028Z,5.93
2023-01-12T20:28:15.204Z,5.60
2023-01-12T20:31:07.446Z,2.80
2023-01-12T20:33:54.382Z,3.63
2023-01-12T20:36:41.421Z,2.63
2023-01-12T20:39:29.437Z,2.80
2023-01-12T20:42:16.386Z,2.13
2023-01-12T20:45:05.024Z,2.03
2023-01-12T20:47:52.061Z,1.83
2023-01-12T20:50:43.024Z,2.07
2023-01-12T20:53:31.533Z,2.33
2023-01-12T20:56:19.166Z,4.20
2023-01-12T20:59:06.329Z,3.20
2023-01-12T21:01:53.479Z,2.77
2023-01-12T21:04:40.518Z,2.40
2023-01-12T21:07:27.577Z,2.40
2023-01-12T21:10:14.515Z,2.60
2023-01-12T21:13:01.446Z,2.60
2023-01-12T21:15:48.531Z,2.43
2023-01-12T21:18:35.572Z,3.23
2023-01-12T21:21:23.431Z,2.17
2023-01-12T21:24:10.611Z,2.50
2023-01-12T21:26:57.563Z,2.40
2023-01-12T21:29:45.808Z,2.40
2023-01-12T21:32:32.741Z,2.23
2023-01-12T21:35:19.720Z,2.40
2023-01-12T21:38:07.185Z,2.30
2023-01-12T21:40:55.002Z,3.30
2023-01-12T21:43:53.094Z,2.33
2023-01-12T21:46:40.047Z,2.00
2023-01-12T21:49:27.024Z,2.53
2023-01-12T21:52:14.057Z,1.97
2023-01-12T21:55:01.067Z,1.80
2023-01-12T21:57:48.112Z,3.40
2023-01-12T22:00:35.108Z,2.97
2023-01-12T22:03:26.417Z,2.27
2023-01-12T22:06:13.738Z,2.33
2023-01-12T22:09:00.700Z,3.23
2023-01-12T22:11:47.631Z,4.37
2023-01-12T22:14:34.600Z,2.33
2023-01-12T22:17:21.517Z,2.30
2023-01-12T22:20:10.104Z,2.57
2023-01-12T22:22:57.124Z,2.53
2023-01-12T22:25:44.061Z,2.27
2023-01-12T22:28:35.027Z,2.13
2023-01-12T22:31:23.617Z,3.10
2023-01-12T22:34:12.677Z,2.57
2023-01-12T22:36:59.639Z,2.13
2023-01-12T22:39:46.591Z,2.10
2023-01-12T22:42:52.300Z,1.80
2023-01-12T22:45:40.342Z,1.63
2023-01-12T22:48:28.197Z,2.30
2023-01-12T22:51:15.420Z,2.27
2023-01-12T22:54:02.418Z,2.30
2023-01-12T22:56:49.335Z,2.93
2023-01-12T22:59:36.236Z,3.17
2023-01-12T23:02:41.900Z,1.80
2023-01-12T23:05:32.043Z,2.40
2023-01-12T23:08:19.012Z,2.73
2023-01-12T23:11:15.602Z,1.80
2023-01-12T23:14:02.555Z,2.77
2023-01-12T23:16:49.566Z,2.10
2023-01-12T23:19:36.527Z,2.10
2023-01-12T23:22:23.506Z,2.50
2023-01-12T23:25:10.460Z,2.20
2023-01-12T23:27:57.511Z,2.13
2023-01-12T23:30:44.831Z,2.67
2023-01-12T23:33:32.265Z,2.23
2023-01-12T23:36:22.156Z,2.20
2023-01-12T23:39:11.688Z,1.80
2023-01-12T23:41:58.684Z,2.00
2023-01-12T23:44:46.572Z,2.03
2023-01-12T23:47:33.595Z,1.70
2023-01-12T23:50:20.655Z,1.83
2023-01-12T23:53:07.707Z,2.10
2023-01-12T23:55:56.478Z,3.63
2023-01-12T23:58:44.156Z,3.03
